FDX18 VHHH-WSSS
Flight info
| Callsign | FDX18 |
|---|---|
| Flight time | N/A |
| Altitude | 34000 |
| Route | PECAN V12 EPDOS L642 EPKAL/K0893F320 L642 EXOTO/K0882F350 L642 ESPOB/N0479F340 Q801 ESBUM/N0476F350 Q802 ELALO ELALO1B |
| Aircraft | B763/H-SDE3FGHIM3RWXY/LB1 |
Departure
| Time | 2026-05-07 21:10 |
|---|---|
| Airport | Hong Kong International Airport (VHHH) |
Arrival
| Time | N/A |
|---|---|
| Airport | Singapore Changi Airport (WSSS) |
| Time | Latitude | Longitude | Altitude | Speed | Heading |
|---|---|---|---|---|---|
| 2026-05-07 20:56 | 22.29866 | 113.92127 | 38 ft | 0 kts | 162° |
| 2026-05-07 20:57 | 22.29877 | 113.92123 | 38 ft | 2 kts | 161° |
| 2026-05-07 20:57 | 22.29891 | 113.92118 | 38 ft | 2 kts | 162° |
| 2026-05-07 20:57 | 22.29906 | 113.92112 | 38 ft | 2 kts | 162° |
| 2026-05-07 20:57 | 22.29920 | 113.92107 | 38 ft | 2 kts | 162° |
| 2026-05-07 20:58 | 22.29934 | 113.92103 | 38 ft | 2 kts | 162° |
| 2026-05-07 20:58 | 22.29948 | 113.92100 | 38 ft | 2 kts | 195° |
| 2026-05-07 20:58 | 22.29961 | 113.92107 | 38 ft | 1 kts | 226° |
| 2026-05-07 20:58 | 22.29967 | 113.92118 | 38 ft | 1 kts | 251° |
| 2026-05-07 20:59 | 22.29967 | 113.92120 | 38 ft | 0 kts | 252° |
| 2026-05-07 21:00 | 22.29967 | 113.92119 | 38 ft | 0 kts | 256° |
| 2026-05-07 21:00 | 22.29981 | 113.92100 | 38 ft | 6 kts | 324° |
| 2026-05-07 21:01 | 22.30016 | 113.92074 | 38 ft | 5 kts | 324° |
| 2026-05-07 21:01 | 22.30059 | 113.92056 | 38 ft | 9 kts | 340° |
| 2026-05-07 21:01 | 22.30128 | 113.92014 | 38 ft | 11 kts | 299° |
| 2026-05-07 21:01 | 22.30121 | 113.91929 | 38 ft | 11 kts | 252° |
| 2026-05-07 21:02 | 22.30098 | 113.91849 | 38 ft | 10 kts | 254° |
| 2026-05-07 21:02 | 22.30071 | 113.91760 | 38 ft | 15 kts | 250° |
| 2026-05-07 21:02 | 22.30033 | 113.91640 | 38 ft | 17 kts | 262° |
| 2026-05-07 21:02 | 22.30098 | 113.91570 | 38 ft | 13 kts | 340° |
| 2026-05-07 21:03 | 22.30182 | 113.91539 | 38 ft | 11 kts | 341° |
| 2026-05-07 21:03 | 22.30257 | 113.91512 | 38 ft | 11 kts | 341° |
| 2026-05-07 21:03 | 22.30342 | 113.91479 | 38 ft | 13 kts | 341° |
| 2026-05-07 21:03 | 22.30415 | 113.91422 | 38 ft | 12 kts | 272° |
| 2026-05-07 21:04 | 22.30401 | 113.91335 | 38 ft | 9 kts | 281° |
| 2026-05-07 21:04 | 22.30455 | 113.91296 | 38 ft | 11 kts | 340° |
| 2026-05-07 21:04 | 22.30554 | 113.91257 | 38 ft | 17 kts | 339° |
| 2026-05-07 21:04 | 22.30670 | 113.91213 | 38 ft | 17 kts | 341° |
| 2026-05-07 21:05 | 22.30783 | 113.91172 | 38 ft | 17 kts | 341° |
| 2026-05-07 21:05 | 22.30898 | 113.91129 | 38 ft | 16 kts | 341° |
| 2026-05-07 21:05 | 22.31007 | 113.91088 | 38 ft | 15 kts | 341° |
| 2026-05-07 21:05 | 22.31106 | 113.91052 | 38 ft | 14 kts | 341° |
| 2026-05-07 21:06 | 22.31197 | 113.91018 | 38 ft | 13 kts | 341° |
| 2026-05-07 21:06 | 22.31270 | 113.90960 | 38 ft | 13 kts | 287° |
| 2026-05-07 21:06 | 22.31249 | 113.90852 | 38 ft | 16 kts | 250° |
| 2026-05-07 21:06 | 22.31210 | 113.90732 | 38 ft | 17 kts | 251° |
| 2026-05-07 21:07 | 22.31169 | 113.90603 | 38 ft | 18 kts | 252° |
| 2026-05-07 21:07 | 22.31125 | 113.90468 | 38 ft | 19 kts | 250° |
| 2026-05-07 21:07 | 22.31082 | 113.90331 | 38 ft | 19 kts | 251° |
| 2026-05-07 21:07 | 22.31037 | 113.90187 | 38 ft | 20 kts | 251° |
| 2026-05-07 21:08 | 22.30984 | 113.90028 | 38 ft | 24 kts | 249° |
| 2026-05-07 21:08 | 22.30933 | 113.89840 | 38 ft | 23 kts | 280° |
| 2026-05-07 21:08 | 22.31047 | 113.89774 | 38 ft | 13 kts | 9° |
| 2026-05-07 21:08 | 22.31097 | 113.89816 | 38 ft | 7 kts | 63° |
| 2026-05-07 21:09 | 22.31115 | 113.89864 | 38 ft | 6 kts | 70° |
| 2026-05-07 21:09 | 22.31152 | 113.89977 | 38 ft | 40 kts | 71° |
| 2026-05-07 21:09 | 22.31316 | 113.90492 | 38 ft | 106 kts | 71° |
| 2026-05-07 21:09 | 22.31635 | 113.91479 | 43 ft | 173 kts | 71° |
| 2026-05-07 21:10 | 22.32060 | 113.92835 | 494 ft | 204 kts | 71° |
| 2026-05-07 21:10 | 22.32570 | 113.94399 | 1086 ft | 240 kts | 71° |
| 2026-05-07 21:10 | 22.33121 | 113.96095 | 1921 ft | 238 kts | 71° |
| 2026-05-07 21:10 | 22.33528 | 113.97875 | 2250 ft | 257 kts | 80° |
| 2026-05-07 21:11 | 22.33834 | 113.99799 | 2888 ft | 264 kts | 79° |
| 2026-05-07 21:11 | 22.34158 | 114.01746 | 3582 ft | 269 kts | 79° |
| 2026-05-07 21:11 | 22.33629 | 114.05677 | 4932 ft | 280 kts | 127° |
| 2026-05-07 21:12 | 22.32151 | 114.07056 | 5652 ft | 281 kts | 155° |
| 2026-05-07 21:12 | 22.30318 | 114.07744 | 6423 ft | 282 kts | 168° |
| 2026-05-07 21:12 | 22.28387 | 114.08134 | 7141 ft | 285 kts | 173° |
| 2026-05-07 21:12 | 22.26426 | 114.08370 | 7861 ft | 288 kts | 176° |
| 2026-05-07 21:13 | 22.24402 | 114.08424 | 8600 ft | 289 kts | 185° |
| 2026-05-07 21:13 | 22.22383 | 114.08249 | 9291 ft | 293 kts | 186° |
| 2026-05-07 21:13 | 22.20355 | 114.08109 | 9959 ft | 298 kts | 185° |
| 2026-05-07 21:13 | 22.18256 | 114.07969 | 10522 ft | 308 kts | 185° |
| 2026-05-07 21:14 | 22.16027 | 114.07827 | 10861 ft | 327 kts | 185° |
| 2026-05-07 21:14 | 22.13695 | 114.07683 | 11213 ft | 344 kts | 185° |
| 2026-05-07 21:14 | 22.11256 | 114.07533 | 11554 ft | 361 kts | 185° |
| 2026-05-07 21:14 | 22.08665 | 114.07377 | 12000 ft | 374 kts | 185° |
| 2026-05-07 21:15 | 22.06073 | 114.07220 | 12754 ft | 377 kts | 185° |
| 2026-05-07 21:15 | 22.03396 | 114.07059 | 13414 ft | 382 kts | 185° |
| 2026-05-07 21:15 | 22.00722 | 114.06898 | 14069 ft | 386 kts | 185° |
| 2026-05-07 21:15 | 21.98026 | 114.06736 | 14697 ft | 391 kts | 185° |
| 2026-05-07 21:16 | 21.95291 | 114.06571 | 15332 ft | 394 kts | 185° |
| 2026-05-07 21:16 | 21.92525 | 114.06406 | 15906 ft | 399 kts | 185° |
| 2026-05-07 21:16 | 21.89734 | 114.06237 | 16488 ft | 403 kts | 185° |
| 2026-05-07 21:16 | 21.86940 | 114.06070 | 17056 ft | 407 kts | 185° |
| 2026-05-07 21:17 | 21.84106 | 114.05900 | 17589 ft | 412 kts | 185° |
| 2026-05-07 21:17 | 21.81210 | 114.05726 | 18127 ft | 416 kts | 185° |
| 2026-05-07 21:17 | 21.78324 | 114.05553 | 18665 ft | 419 kts | 185° |
| 2026-05-07 21:17 | 21.75367 | 114.05374 | 19194 ft | 423 kts | 185° |
| 2026-05-07 21:18 | 21.72438 | 114.05199 | 19685 ft | 428 kts | 185° |
| 2026-05-07 21:18 | 21.69439 | 114.05019 | 20208 ft | 431 kts | 185° |
| 2026-05-07 21:18 | 21.66412 | 114.04839 | 20667 ft | 435 kts | 185° |
| 2026-05-07 21:18 | 21.63385 | 114.04657 | 21166 ft | 438 kts | 185° |
| 2026-05-07 21:19 | 21.60331 | 114.04474 | 21596 ft | 442 kts | 185° |
| 2026-05-07 21:19 | 21.57240 | 114.04289 | 22078 ft | 444 kts | 185° |
| 2026-05-07 21:19 | 21.54132 | 114.04103 | 22484 ft | 448 kts | 185° |
| 2026-05-07 21:19 | 21.51034 | 114.03918 | 22869 ft | 452 kts | 185° |
| 2026-05-07 21:20 | 21.47854 | 114.03728 | 23292 ft | 455 kts | 185° |
| 2026-05-07 21:20 | 21.44681 | 114.03539 | 23655 ft | 458 kts | 185° |
| 2026-05-07 21:20 | 21.41504 | 114.03333 | 24055 ft | 461 kts | 185° |
| 2026-05-07 21:20 | 21.38296 | 114.03117 | 24440 ft | 463 kts | 185° |
| 2026-05-07 21:21 | 21.35058 | 114.02900 | 24808 ft | 466 kts | 185° |
| 2026-05-07 21:21 | 21.31802 | 114.02682 | 25183 ft | 468 kts | 185° |
| 2026-05-07 21:21 | 21.28534 | 114.02464 | 25516 ft | 471 kts | 185° |
| 2026-05-07 21:21 | 21.25276 | 114.02245 | 25889 ft | 472 kts | 185° |
| 2026-05-07 21:22 | 21.21955 | 114.02023 | 26217 ft | 475 kts | 185° |
| 2026-05-07 21:22 | 21.18674 | 114.01804 | 26527 ft | 478 kts | 185° |
| 2026-05-07 21:22 | 21.15331 | 114.01581 | 26850 ft | 480 kts | 185° |
| 2026-05-07 21:22 | 21.12001 | 114.01358 | 27137 ft | 483 kts | 185° |
| 2026-05-07 21:23 | 21.08632 | 114.01133 | 27428 ft | 486 kts | 185° |
| 2026-05-07 21:23 | 21.05232 | 114.00906 | 27772 ft | 487 kts | 185° |
| 2026-05-07 21:23 | 21.01856 | 114.00681 | 28040 ft | 490 kts | 185° |
| 2026-05-07 21:23 | 20.98396 | 114.00452 | 28329 ft | 492 kts | 185° |
| 2026-05-07 21:24 | 20.94991 | 114.00206 | 28564 ft | 495 kts | 187° |
| 2026-05-07 21:24 | 20.91595 | 113.99594 | 28895 ft | 494 kts | 194° |
| 2026-05-07 21:24 | 20.88203 | 113.98812 | 29176 ft | 496 kts | 193° |
| 2026-05-07 21:24 | 20.84821 | 113.98038 | 29466 ft | 497 kts | 194° |
| 2026-05-07 21:25 | 20.81480 | 113.97269 | 29830 ft | 496 kts | 193° |
| 2026-05-07 21:25 | 20.78102 | 113.96487 | 30234 ft | 494 kts | 194° |
| 2026-05-07 21:25 | 20.74717 | 113.95702 | 30583 ft | 493 kts | 194° |
| 2026-05-07 21:25 | 20.71356 | 113.94923 | 30911 ft | 492 kts | 194° |
| 2026-05-07 21:26 | 20.68019 | 113.94147 | 31353 ft | 488 kts | 194° |
| 2026-05-07 21:26 | 20.64726 | 113.93383 | 31691 ft | 487 kts | 194° |
| 2026-05-07 21:26 | 20.61406 | 113.92612 | 31979 ft | 487 kts | 194° |
| 2026-05-07 21:26 | 20.58120 | 113.91849 | 32339 ft | 485 kts | 194° |
| 2026-05-07 21:27 | 20.54798 | 113.91077 | 32651 ft | 485 kts | 194° |
| 2026-05-07 21:27 | 20.51508 | 113.90314 | 32907 ft | 485 kts | 194° |
| 2026-05-07 21:27 | 20.48184 | 113.89543 | 33247 ft | 484 kts | 194° |
| 2026-05-07 21:27 | 20.44918 | 113.88786 | 33539 ft | 484 kts | 194° |
| 2026-05-07 21:28 | 20.41605 | 113.88019 | 33809 ft | 484 kts | 194° |
| 2026-05-07 21:28 | 20.38329 | 113.87260 | 33904 ft | 480 kts | 194° |
| 2026-05-07 21:28 | 20.31819 | 113.85752 | 33897 ft | 480 kts | 194° |
| 2026-05-07 21:29 | 20.25265 | 113.84236 | 33891 ft | 482 kts | 194° |
| 2026-05-07 21:29 | 20.18677 | 113.82714 | 33885 ft | 482 kts | 194° |
| 2026-05-07 21:30 | 20.12119 | 113.81200 | 33884 ft | 482 kts | 194° |
| 2026-05-07 21:30 | 20.05592 | 113.79694 | 33887 ft | 481 kts | 194° |
| 2026-05-07 21:31 | 19.99041 | 113.78185 | 33886 ft | 481 kts | 194° |
| 2026-05-07 21:31 | 19.92477 | 113.76672 | 33886 ft | 481 kts | 193° |
| 2026-05-07 21:32 | 19.85940 | 113.75168 | 33881 ft | 482 kts | 193° |
| 2026-05-07 21:32 | 19.79414 | 113.73399 | 33888 ft | 479 kts | 204° |
| 2026-05-07 21:33 | 19.73583 | 113.70044 | 33890 ft | 478 kts | 213° |
| 2026-05-07 21:33 | 19.67779 | 113.66623 | 33882 ft | 478 kts | 210° |
| 2026-05-07 21:34 | 19.61858 | 113.63369 | 33883 ft | 478 kts | 209° |
| 2026-05-07 21:34 | 19.55936 | 113.60207 | 33883 ft | 478 kts | 208° |
| 2026-05-07 21:35 | 19.49948 | 113.57050 | 33883 ft | 479 kts | 208° |
| 2026-05-07 21:35 | 19.43965 | 113.53912 | 33883 ft | 479 kts | 208° |
| 2026-05-07 21:36 | 19.38031 | 113.50806 | 33884 ft | 479 kts | 208° |
| 2026-05-07 21:36 | 19.32024 | 113.47669 | 33883 ft | 479 kts | 208° |
| 2026-05-07 21:37 | 19.26074 | 113.44563 | 33883 ft | 478 kts | 208° |
| 2026-05-07 21:37 | 19.20066 | 113.41429 | 33884 ft | 479 kts | 208° |
| 2026-05-07 21:38 | 19.14096 | 113.38319 | 33884 ft | 479 kts | 208° |
| 2026-05-07 21:38 | 19.08109 | 113.35201 | 33884 ft | 479 kts | 208° |
| 2026-05-07 21:39 | 19.02096 | 113.32074 | 33886 ft | 480 kts | 208° |
| 2026-05-07 21:39 | 18.96123 | 113.28970 | 33887 ft | 479 kts | 208° |
| 2026-05-07 21:40 | 18.90118 | 113.25851 | 33887 ft | 479 kts | 208° |
| 2026-05-07 21:40 | 18.84139 | 113.22748 | 33884 ft | 479 kts | 208° |
| 2026-05-07 21:41 | 18.78146 | 113.19640 | 33883 ft | 480 kts | 208° |
| 2026-05-07 21:41 | 18.72141 | 113.16529 | 33884 ft | 480 kts | 208° |
| 2026-05-07 21:42 | 18.66130 | 113.13418 | 33884 ft | 480 kts | 208° |
| 2026-05-07 21:42 | 18.60141 | 113.10319 | 33883 ft | 480 kts | 208° |
| 2026-05-07 21:43 | 18.54129 | 113.07212 | 33884 ft | 481 kts | 208° |
| 2026-05-07 21:43 | 18.48099 | 113.04097 | 33884 ft | 481 kts | 208° |
| 2026-05-07 21:44 | 18.42102 | 113.01002 | 33884 ft | 481 kts | 208° |
| 2026-05-07 21:44 | 18.36111 | 112.97913 | 33885 ft | 481 kts | 208° |
| 2026-05-07 21:45 | 18.30077 | 112.94804 | 33885 ft | 481 kts | 208° |
| 2026-05-07 21:45 | 18.24035 | 112.91694 | 33886 ft | 482 kts | 208° |
| 2026-05-07 21:46 | 18.18029 | 112.88604 | 33885 ft | 482 kts | 208° |
| 2026-05-07 21:46 | 18.11983 | 112.85496 | 33874 ft | 482 kts | 208° |
| 2026-05-07 21:47 | 18.05952 | 112.82398 | 33864 ft | 481 kts | 208° |
| 2026-05-07 21:47 | 17.99947 | 112.79315 | 33865 ft | 482 kts | 208° |
| 2026-05-07 21:48 | 17.93901 | 112.76215 | 33866 ft | 483 kts | 208° |
| 2026-05-07 21:48 | 17.87833 | 112.73106 | 33860 ft | 483 kts | 208° |
| 2026-05-07 21:49 | 17.81782 | 112.70007 | 33862 ft | 484 kts | 208° |
| 2026-05-07 21:49 | 17.75746 | 112.66918 | 33864 ft | 483 kts | 208° |
| 2026-05-07 21:50 | 17.69691 | 112.63821 | 33868 ft | 482 kts | 208° |
| 2026-05-07 21:50 | 17.63635 | 112.60728 | 33866 ft | 483 kts | 208° |
| 2026-05-07 21:51 | 17.57614 | 112.57654 | 33868 ft | 483 kts | 208° |
| 2026-05-07 21:51 | 17.51546 | 112.54558 | 33877 ft | 483 kts | 208° |
| 2026-05-07 21:52 | 17.45506 | 112.51479 | 33883 ft | 483 kts | 208° |
| 2026-05-07 21:52 | 17.39443 | 112.48390 | 33884 ft | 484 kts | 208° |
| 2026-05-07 21:53 | 17.33380 | 112.45304 | 33884 ft | 484 kts | 208° |
| 2026-05-07 21:53 | 17.27315 | 112.42219 | 33884 ft | 484 kts | 207° |
| 2026-05-07 21:54 | 17.21231 | 112.39127 | 33885 ft | 484 kts | 207° |
| 2026-05-07 21:54 | 17.15161 | 112.36043 | 33884 ft | 484 kts | 207° |
| 2026-05-07 21:55 | 17.09110 | 112.32973 | 33887 ft | 484 kts | 207° |
| 2026-05-07 21:55 | 17.03051 | 112.29900 | 33886 ft | 485 kts | 207° |
| 2026-05-07 21:56 | 16.97284 | 112.26247 | 33904 ft | 482 kts | 218° |
| 2026-05-07 21:56 | 16.91857 | 112.22160 | 33888 ft | 483 kts | 217° |
| 2026-05-07 21:57 | 16.86401 | 112.18037 | 33882 ft | 482 kts | 218° |
| 2026-05-07 21:57 | 16.80980 | 112.13934 | 33883 ft | 483 kts | 218° |
| 2026-05-07 21:58 | 16.75539 | 112.09816 | 33881 ft | 483 kts | 218° |
| 2026-05-07 21:58 | 16.70109 | 112.05708 | 33883 ft | 483 kts | 218° |
| 2026-05-07 21:59 | 16.64639 | 112.01573 | 33884 ft | 482 kts | 218° |
| 2026-05-07 21:59 | 16.59225 | 111.97484 | 33883 ft | 482 kts | 218° |
| 2026-05-07 22:00 | 16.53776 | 111.93369 | 33883 ft | 483 kts | 218° |
| 2026-05-07 22:00 | 16.48313 | 111.89249 | 33884 ft | 483 kts | 218° |
| 2026-05-07 22:01 | 16.42875 | 111.85149 | 33886 ft | 484 kts | 218° |
| 2026-05-07 22:01 | 16.37425 | 111.81043 | 33882 ft | 483 kts | 218° |
| 2026-05-07 22:02 | 16.31988 | 111.76951 | 33885 ft | 483 kts | 218° |
| 2026-05-07 22:02 | 16.26541 | 111.72852 | 33879 ft | 484 kts | 218° |
| 2026-05-07 22:03 | 16.21078 | 111.68745 | 33875 ft | 484 kts | 218° |
| 2026-05-07 22:03 | 16.15620 | 111.64646 | 33870 ft | 484 kts | 218° |
| 2026-05-07 22:04 | 16.10137 | 111.60529 | 33868 ft | 484 kts | 218° |
| 2026-05-07 22:04 | 16.04686 | 111.56440 | 33864 ft | 484 kts | 218° |
| 2026-05-07 22:05 | 15.99244 | 111.52361 | 33864 ft | 483 kts | 218° |
| 2026-05-07 22:05 | 15.93767 | 111.48257 | 33866 ft | 484 kts | 218° |
| 2026-05-07 22:06 | 15.88292 | 111.44160 | 33862 ft | 484 kts | 218° |
| 2026-05-07 22:06 | 15.82847 | 111.40086 | 33861 ft | 484 kts | 218° |
| 2026-05-07 22:07 | 15.77367 | 111.35989 | 33864 ft | 484 kts | 218° |
| 2026-05-07 22:07 | 15.71879 | 111.31888 | 33864 ft | 484 kts | 217° |
| 2026-05-07 22:08 | 15.66410 | 111.27805 | 33863 ft | 483 kts | 217° |
| 2026-05-07 22:08 | 15.60953 | 111.23734 | 33861 ft | 484 kts | 217° |
| 2026-05-07 22:09 | 15.55465 | 111.19642 | 33862 ft | 485 kts | 217° |
| 2026-05-07 22:09 | 15.50008 | 111.15576 | 33863 ft | 484 kts | 217° |
| 2026-05-07 22:10 | 15.44512 | 111.11484 | 33865 ft | 485 kts | 217° |
| 2026-05-07 22:10 | 15.39033 | 111.07407 | 33864 ft | 484 kts | 217° |
| 2026-05-07 22:11 | 15.33592 | 111.03326 | 33866 ft | 484 kts | 218° |
| 2026-05-07 22:11 | 15.28164 | 110.99197 | 33873 ft | 484 kts | 218° |
| 2026-05-07 22:12 | 15.22727 | 110.95066 | 33879 ft | 485 kts | 218° |
| 2026-05-07 22:12 | 15.17285 | 110.90933 | 33881 ft | 484 kts | 218° |
| 2026-05-07 22:13 | 15.11837 | 110.86800 | 33882 ft | 484 kts | 218° |
| 2026-05-07 22:13 | 15.06417 | 110.82690 | 33883 ft | 484 kts | 218° |
| 2026-05-07 22:14 | 15.00966 | 110.78560 | 33885 ft | 484 kts | 218° |
| 2026-05-07 22:14 | 14.95529 | 110.74443 | 33883 ft | 485 kts | 218° |
| 2026-05-07 22:15 | 14.90092 | 110.70328 | 33886 ft | 485 kts | 218° |
| 2026-05-07 22:15 | 14.84660 | 110.66220 | 33883 ft | 484 kts | 218° |
| 2026-05-07 22:16 | 14.79188 | 110.62084 | 33883 ft | 483 kts | 218° |
| 2026-05-07 22:16 | 14.73789 | 110.58006 | 33883 ft | 484 kts | 218° |
| 2026-05-07 22:17 | 14.68325 | 110.53882 | 33883 ft | 485 kts | 218° |
| 2026-05-07 22:17 | 14.62886 | 110.49779 | 33882 ft | 485 kts | 218° |
| 2026-05-07 22:18 | 14.54708 | 110.43614 | 33883 ft | 485 kts | 218° |
| 2026-05-07 22:19 | 14.49266 | 110.39515 | 33884 ft | 484 kts | 218° |
| 2026-05-07 22:19 | 14.43814 | 110.35411 | 33879 ft | 483 kts | 218° |
| 2026-05-07 22:20 | 14.38371 | 110.31317 | 33873 ft | 484 kts | 218° |
| 2026-05-07 22:20 | 14.32917 | 110.27216 | 33867 ft | 484 kts | 217° |
| 2026-05-07 22:21 | 14.27469 | 110.23123 | 33865 ft | 485 kts | 217° |
| 2026-05-07 22:21 | 14.22009 | 110.19024 | 33864 ft | 486 kts | 218° |
| 2026-05-07 22:22 | 14.16548 | 110.14925 | 33864 ft | 485 kts | 218° |
| 2026-05-07 22:22 | 14.11093 | 110.10835 | 33866 ft | 485 kts | 218° |
| 2026-05-07 22:23 | 14.05621 | 110.06734 | 33866 ft | 486 kts | 218° |
| 2026-05-07 22:23 | 14.00139 | 110.02627 | 33864 ft | 485 kts | 218° |
| 2026-05-07 22:24 | 13.94597 | 109.98661 | 33870 ft | 486 kts | 213° |
| 2026-05-07 22:24 | 13.88829 | 109.94971 | 33868 ft | 487 kts | 213° |
| 2026-05-07 22:25 | 13.83104 | 109.91291 | 33859 ft | 486 kts | 213° |
| 2026-05-07 22:25 | 13.77355 | 109.87595 | 33862 ft | 486 kts | 213° |
| 2026-05-07 22:26 | 13.71622 | 109.83911 | 33867 ft | 487 kts | 213° |
| 2026-05-07 22:26 | 13.65875 | 109.80219 | 33866 ft | 487 kts | 213° |
| 2026-05-07 22:27 | 13.60128 | 109.76530 | 33868 ft | 486 kts | 213° |
| 2026-05-07 22:27 | 13.54374 | 109.72839 | 33870 ft | 487 kts | 213° |
| 2026-05-07 22:28 | 13.48633 | 109.69157 | 33877 ft | 487 kts | 213° |
| 2026-05-07 22:28 | 13.42859 | 109.65457 | 33881 ft | 488 kts | 213° |
| 2026-05-07 22:29 | 13.37113 | 109.61776 | 33885 ft | 487 kts | 213° |
| 2026-05-07 22:29 | 13.31362 | 109.58095 | 33892 ft | 487 kts | 213° |
| 2026-05-07 22:30 | 13.25600 | 109.54409 | 33887 ft | 486 kts | 213° |
| 2026-05-07 22:30 | 13.19847 | 109.50730 | 33884 ft | 487 kts | 213° |
| 2026-05-07 22:31 | 13.14075 | 109.47041 | 33888 ft | 489 kts | 213° |
| 2026-05-07 22:31 | 13.08317 | 109.43364 | 33883 ft | 488 kts | 213° |
| 2026-05-07 22:32 | 13.02563 | 109.39690 | 33885 ft | 486 kts | 213° |
| 2026-05-07 22:32 | 12.96796 | 109.36011 | 33891 ft | 486 kts | 213° |
| 2026-05-07 22:33 | 12.91044 | 109.32344 | 33894 ft | 487 kts | 213° |
| 2026-05-07 22:33 | 12.85287 | 109.28674 | 33898 ft | 487 kts | 213° |
| 2026-05-07 22:34 | 12.79517 | 109.25000 | 33905 ft | 486 kts | 213° |
| 2026-05-07 22:34 | 12.73780 | 109.21347 | 33919 ft | 486 kts | 213° |
| 2026-05-07 22:35 | 12.68000 | 109.17670 | 33928 ft | 486 kts | 213° |
| 2026-05-07 22:35 | 12.62285 | 109.14037 | 33925 ft | 485 kts | 213° |
| 2026-05-07 22:36 | 12.56553 | 109.10398 | 33927 ft | 485 kts | 213° |
| 2026-05-07 22:36 | 12.50790 | 109.06741 | 33917 ft | 485 kts | 213° |
| 2026-05-07 22:37 | 12.45058 | 109.03105 | 33921 ft | 484 kts | 213° |
| 2026-05-07 22:37 | 12.39311 | 108.99462 | 33919 ft | 485 kts | 213° |
| 2026-05-07 22:38 | 12.33552 | 108.95812 | 33944 ft | 484 kts | 213° |
| 2026-05-07 22:38 | 12.27857 | 108.92206 | 33958 ft | 484 kts | 213° |
| 2026-05-07 22:39 | 12.22105 | 108.88564 | 33974 ft | 484 kts | 213° |
| 2026-05-07 22:39 | 12.16364 | 108.84933 | 33992 ft | 483 kts | 213° |
| 2026-05-07 22:40 | 12.10649 | 108.81320 | 34001 ft | 484 kts | 213° |
| 2026-05-07 22:40 | 12.04926 | 108.77703 | 34003 ft | 483 kts | 213° |
| 2026-05-07 22:41 | 11.99192 | 108.74081 | 33998 ft | 482 kts | 213° |
| 2026-05-07 22:41 | 11.93485 | 108.70478 | 33994 ft | 482 kts | 213° |
| 2026-05-07 22:42 | 11.87758 | 108.66863 | 33987 ft | 482 kts | 213° |
| 2026-05-07 22:42 | 11.82049 | 108.63263 | 33980 ft | 482 kts | 213° |
| 2026-05-07 22:43 | 11.76353 | 108.59674 | 33985 ft | 482 kts | 213° |
| 2026-05-07 22:43 | 11.70636 | 108.56073 | 33987 ft | 482 kts | 213° |
| 2026-05-07 22:44 | 11.64913 | 108.52470 | 33992 ft | 483 kts | 213° |
| 2026-05-07 22:44 | 11.59175 | 108.48858 | 33986 ft | 481 kts | 213° |
| 2026-05-07 22:45 | 11.53486 | 108.45280 | 33966 ft | 481 kts | 213° |
| 2026-05-07 22:45 | 11.47778 | 108.41692 | 33954 ft | 481 kts | 213° |
| 2026-05-07 22:46 | 11.42085 | 108.38114 | 33936 ft | 482 kts | 213° |
| 2026-05-07 22:46 | 11.36351 | 108.34513 | 33921 ft | 481 kts | 213° |
| 2026-05-07 22:47 | 11.30665 | 108.30944 | 33911 ft | 480 kts | 213° |
| 2026-05-07 22:47 | 11.24966 | 108.27367 | 33903 ft | 480 kts | 213° |
| 2026-05-07 22:48 | 11.19273 | 108.23797 | 33903 ft | 480 kts | 213° |
| 2026-05-07 22:48 | 11.13583 | 108.20230 | 33905 ft | 480 kts | 213° |
| 2026-05-07 22:49 | 11.07884 | 108.16659 | 33903 ft | 481 kts | 213° |
| 2026-05-07 22:49 | 11.02146 | 108.13065 | 33899 ft | 481 kts | 213° |
| 2026-05-07 22:50 | 10.96435 | 108.09491 | 33896 ft | 481 kts | 213° |
| 2026-05-07 22:50 | 10.90760 | 108.05870 | 33895 ft | 480 kts | 214° |
| 2026-05-07 22:51 | 10.85171 | 108.02148 | 33883 ft | 479 kts | 214° |
| 2026-05-07 22:51 | 10.79610 | 107.98453 | 33885 ft | 479 kts | 214° |
| 2026-05-07 22:52 | 10.74015 | 107.94737 | 33881 ft | 481 kts | 214° |
| 2026-05-07 22:52 | 10.68405 | 107.91015 | 33879 ft | 481 kts | 214° |
| 2026-05-07 22:53 | 10.62801 | 107.87297 | 33875 ft | 481 kts | 214° |
| 2026-05-07 22:53 | 10.57171 | 107.83564 | 33874 ft | 481 kts | 214° |
| 2026-05-07 22:54 | 10.51563 | 107.79848 | 33871 ft | 481 kts | 214° |
| 2026-05-07 22:54 | 10.45964 | 107.76138 | 33872 ft | 481 kts | 214° |
| 2026-05-07 22:55 | 10.40357 | 107.72439 | 33872 ft | 480 kts | 214° |
| 2026-05-07 22:55 | 10.34745 | 107.68739 | 33870 ft | 480 kts | 214° |
| 2026-05-07 22:56 | 10.29127 | 107.65037 | 33869 ft | 480 kts | 214° |
| 2026-05-07 22:56 | 10.23496 | 107.61329 | 33867 ft | 481 kts | 214° |
| 2026-05-07 22:57 | 10.17908 | 107.57650 | 33866 ft | 481 kts | 214° |
| 2026-05-07 22:57 | 10.12267 | 107.53936 | 33866 ft | 481 kts | 214° |
| 2026-05-07 22:58 | 10.06661 | 107.50236 | 33866 ft | 481 kts | 214° |
| 2026-05-07 22:58 | 10.01028 | 107.46521 | 33866 ft | 481 kts | 214° |
| 2026-05-07 22:59 | 9.95412 | 107.42819 | 33865 ft | 481 kts | 214° |
| 2026-05-07 22:59 | 9.89810 | 107.39127 | 33865 ft | 481 kts | 214° |
| 2026-05-07 23:00 | 9.84173 | 107.35414 | 33863 ft | 482 kts | 214° |
| 2026-05-07 23:00 | 9.78544 | 107.31708 | 33861 ft | 482 kts | 213° |
| 2026-05-07 23:01 | 9.72892 | 107.27988 | 33858 ft | 481 kts | 213° |
| 2026-05-07 23:01 | 9.67286 | 107.24300 | 33855 ft | 481 kts | 213° |
| 2026-05-07 23:02 | 9.61664 | 107.20602 | 33856 ft | 481 kts | 213° |
| 2026-05-07 23:02 | 9.56053 | 107.16914 | 33851 ft | 481 kts | 213° |
| 2026-05-07 23:03 | 9.50418 | 107.13212 | 33844 ft | 482 kts | 213° |
| 2026-05-07 23:03 | 9.44780 | 107.09508 | 33844 ft | 481 kts | 213° |
| 2026-05-07 23:04 | 9.39180 | 107.05832 | 33843 ft | 479 kts | 213° |
| 2026-05-07 23:04 | 9.33566 | 107.02147 | 33842 ft | 480 kts | 213° |
| 2026-05-07 23:05 | 9.27977 | 106.98480 | 33841 ft | 480 kts | 213° |
| 2026-05-07 23:05 | 9.22352 | 106.94791 | 33840 ft | 480 kts | 213° |
| 2026-05-07 23:06 | 9.16738 | 106.91111 | 33843 ft | 480 kts | 213° |
| 2026-05-07 23:06 | 9.11139 | 106.87442 | 33842 ft | 480 kts | 213° |
| 2026-05-07 23:07 | 9.05501 | 106.83749 | 33843 ft | 479 kts | 213° |
| 2026-05-07 23:07 | 8.99928 | 106.80100 | 33852 ft | 479 kts | 213° |
| 2026-05-07 23:08 | 8.94289 | 106.76408 | 33862 ft | 481 kts | 213° |
| 2026-05-07 23:08 | 8.88674 | 106.72734 | 33863 ft | 481 kts | 213° |
| 2026-05-07 23:09 | 8.83053 | 106.69058 | 33863 ft | 480 kts | 213° |
| 2026-05-07 23:09 | 8.77445 | 106.65391 | 33864 ft | 481 kts | 213° |
| 2026-05-07 23:10 | 8.71814 | 106.61748 | 33863 ft | 481 kts | 212° |
| 2026-05-07 23:10 | 8.66091 | 106.58199 | 33864 ft | 480 kts | 212° |
| 2026-05-07 23:11 | 8.60392 | 106.54660 | 33865 ft | 481 kts | 212° |
| 2026-05-07 23:11 | 8.54694 | 106.51122 | 33865 ft | 481 kts | 212° |
| 2026-05-07 23:12 | 8.48997 | 106.47587 | 33863 ft | 480 kts | 212° |
| 2026-05-07 23:12 | 8.43271 | 106.44035 | 33862 ft | 481 kts | 212° |
| 2026-05-07 23:13 | 8.37542 | 106.40481 | 33858 ft | 482 kts | 211° |
| 2026-05-07 23:13 | 8.31842 | 106.36947 | 33856 ft | 481 kts | 211° |
| 2026-05-07 23:14 | 8.26143 | 106.33415 | 33853 ft | 482 kts | 211° |
| 2026-05-07 23:14 | 8.20419 | 106.29868 | 33852 ft | 481 kts | 211° |
| 2026-05-07 23:15 | 8.14726 | 106.26342 | 33848 ft | 481 kts | 211° |
| 2026-05-07 23:15 | 8.08994 | 106.22793 | 33843 ft | 481 kts | 211° |
| 2026-05-07 23:16 | 8.03271 | 106.19250 | 33845 ft | 482 kts | 211° |
| 2026-05-07 23:16 | 7.97574 | 106.15725 | 33843 ft | 482 kts | 211° |
| 2026-05-07 23:17 | 7.91842 | 106.12180 | 33843 ft | 482 kts | 211° |
| 2026-05-07 23:17 | 7.86108 | 106.08635 | 33842 ft | 482 kts | 211° |
| 2026-05-07 23:18 | 7.80380 | 106.05094 | 33841 ft | 481 kts | 211° |
| 2026-05-07 23:18 | 7.74686 | 106.01575 | 33844 ft | 482 kts | 211° |
| 2026-05-07 23:19 | 7.68954 | 105.98035 | 33842 ft | 482 kts | 211° |
| 2026-05-07 23:19 | 7.63237 | 105.94504 | 33843 ft | 482 kts | 211° |
| 2026-05-07 23:20 | 7.57498 | 105.90961 | 33844 ft | 482 kts | 211° |
| 2026-05-07 23:20 | 7.51792 | 105.87439 | 33843 ft | 482 kts | 211° |
| 2026-05-07 23:21 | 7.46041 | 105.83890 | 33844 ft | 481 kts | 211° |
| 2026-05-07 23:21 | 7.40344 | 105.80377 | 33843 ft | 481 kts | 211° |
| 2026-05-07 23:22 | 7.34647 | 105.76865 | 33843 ft | 481 kts | 211° |
| 2026-05-07 23:22 | 7.28918 | 105.73333 | 33846 ft | 481 kts | 211° |
| 2026-05-07 23:23 | 7.23182 | 105.69799 | 33848 ft | 481 kts | 211° |
| 2026-05-07 23:23 | 7.17468 | 105.66279 | 33851 ft | 481 kts | 211° |
| 2026-05-07 23:24 | 7.11769 | 105.62769 | 33858 ft | 481 kts | 211° |
| 2026-05-07 23:24 | 7.06036 | 105.59240 | 33853 ft | 481 kts | 211° |
| 2026-05-07 23:25 | 7.00317 | 105.55722 | 33847 ft | 480 kts | 210° |
| 2026-05-07 23:25 | 6.94391 | 105.52644 | 33846 ft | 480 kts | 206° |
| 2026-05-07 23:26 | 6.88427 | 105.49621 | 33843 ft | 481 kts | 206° |
| 2026-05-07 23:26 | 6.82436 | 105.46578 | 33842 ft | 480 kts | 206° |
| 2026-05-07 23:27 | 6.73493 | 105.42030 | 33846 ft | 480 kts | 206° |
| 2026-05-07 23:27 | 6.67498 | 105.38982 | 33845 ft | 480 kts | 206° |
| 2026-05-07 23:28 | 6.61550 | 105.35958 | 33844 ft | 480 kts | 206° |
| 2026-05-07 23:28 | 6.55549 | 105.32909 | 33841 ft | 479 kts | 206° |
| 2026-05-07 23:29 | 6.49622 | 105.29896 | 33840 ft | 479 kts | 206° |
| 2026-05-07 23:29 | 6.43636 | 105.26856 | 33841 ft | 479 kts | 206° |
| 2026-05-07 23:30 | 6.37706 | 105.23844 | 33842 ft | 479 kts | 206° |
| 2026-05-07 23:30 | 6.31742 | 105.20816 | 33842 ft | 479 kts | 206° |
| 2026-05-07 23:31 | 6.25759 | 105.17779 | 33843 ft | 481 kts | 205° |
| 2026-05-07 23:31 | 6.19762 | 105.14736 | 33840 ft | 480 kts | 206° |
| 2026-05-07 23:32 | 6.13813 | 105.11717 | 33843 ft | 480 kts | 206° |
| 2026-05-07 23:32 | 6.07824 | 105.08680 | 33841 ft | 480 kts | 206° |
| 2026-05-07 23:33 | 6.01853 | 105.05653 | 33842 ft | 479 kts | 206° |
| 2026-05-07 23:33 | 5.95931 | 105.02650 | 33842 ft | 480 kts | 206° |
| 2026-05-07 23:34 | 5.89924 | 104.99606 | 33841 ft | 480 kts | 205° |
| 2026-05-07 23:34 | 5.83951 | 104.96579 | 33843 ft | 481 kts | 206° |
| 2026-05-07 23:35 | 5.78000 | 104.93565 | 33840 ft | 480 kts | 206° |
| 2026-05-07 23:35 | 5.72002 | 104.90527 | 33844 ft | 480 kts | 206° |
| 2026-05-07 23:36 | 5.66016 | 104.87495 | 33843 ft | 480 kts | 206° |
| 2026-05-07 23:36 | 5.60081 | 104.84491 | 33843 ft | 479 kts | 205° |
| 2026-05-07 23:37 | 5.54085 | 104.81456 | 33841 ft | 480 kts | 206° |
| 2026-05-07 23:37 | 5.48104 | 104.78430 | 33851 ft | 480 kts | 206° |
| 2026-05-07 23:38 | 5.42142 | 104.75414 | 33851 ft | 480 kts | 206° |
| 2026-05-07 23:38 | 5.36158 | 104.72388 | 33849 ft | 481 kts | 206° |
| 2026-05-07 23:39 | 5.30163 | 104.69357 | 33840 ft | 480 kts | 206° |
| 2026-05-07 23:39 | 5.24204 | 104.66344 | 33846 ft | 480 kts | 206° |
| 2026-05-07 23:40 | 5.18223 | 104.63321 | 33842 ft | 480 kts | 206° |
| 2026-05-07 23:40 | 5.12231 | 104.60293 | 33842 ft | 480 kts | 206° |
| 2026-05-07 23:41 | 5.06285 | 104.57289 | 33842 ft | 481 kts | 206° |
| 2026-05-07 23:41 | 5.00267 | 104.54249 | 33844 ft | 481 kts | 206° |
| 2026-05-07 23:42 | 4.94290 | 104.51231 | 33846 ft | 481 kts | 206° |
| 2026-05-07 23:42 | 4.88067 | 104.48815 | 33860 ft | 476 kts | 190° |
| 2026-05-07 23:43 | 4.81510 | 104.48417 | 33856 ft | 472 kts | 173° |
| 2026-05-07 23:43 | 4.74967 | 104.49102 | 33846 ft | 473 kts | 172° |
| 2026-05-07 23:44 | 4.68398 | 104.49872 | 33845 ft | 472 kts | 171° |
| 2026-05-07 23:44 | 4.61893 | 104.50670 | 33842 ft | 472 kts | 171° |
| 2026-05-07 23:45 | 4.55356 | 104.51486 | 33845 ft | 473 kts | 171° |
| 2026-05-07 23:45 | 4.48803 | 104.52310 | 33845 ft | 473 kts | 171° |
| 2026-05-07 23:46 | 4.42231 | 104.53138 | 33845 ft | 473 kts | 171° |
| 2026-05-07 23:46 | 4.35727 | 104.53957 | 33845 ft | 471 kts | 171° |
| 2026-05-07 23:47 | 4.29174 | 104.54783 | 33846 ft | 471 kts | 171° |
| 2026-05-07 23:47 | 4.22662 | 104.55497 | 33842 ft | 473 kts | 177° |
| 2026-05-07 23:48 | 4.16066 | 104.54730 | 33853 ft | 477 kts | 189° |
| 2026-05-07 23:48 | 4.09557 | 104.53475 | 33846 ft | 477 kts | 189° |
| 2026-05-07 23:49 | 4.03007 | 104.52184 | 33847 ft | 476 kts | 189° |
| 2026-05-07 23:49 | 3.96511 | 104.50893 | 33845 ft | 475 kts | 189° |
| 2026-05-07 23:50 | 3.89986 | 104.49591 | 33846 ft | 475 kts | 189° |
| 2026-05-07 23:50 | 3.83479 | 104.48292 | 33856 ft | 476 kts | 189° |
| 2026-05-07 23:51 | 3.76996 | 104.46997 | 33863 ft | 477 kts | 190° |
| 2026-05-07 23:51 | 3.70470 | 104.45693 | 33860 ft | 477 kts | 190° |
| 2026-05-07 23:52 | 3.63956 | 104.44392 | 33856 ft | 477 kts | 190° |
| 2026-05-07 23:52 | 3.57387 | 104.43080 | 33852 ft | 476 kts | 189° |
| 2026-05-07 23:53 | 3.50909 | 104.41787 | 33849 ft | 476 kts | 190° |
| 2026-05-07 23:53 | 3.44369 | 104.40481 | 33847 ft | 476 kts | 190° |
| 2026-05-07 23:54 | 3.37879 | 104.39186 | 33845 ft | 476 kts | 190° |
| 2026-05-07 23:54 | 3.31339 | 104.37881 | 33844 ft | 476 kts | 190° |
| 2026-05-07 23:55 | 3.24830 | 104.36581 | 33845 ft | 477 kts | 190° |
| 2026-05-07 23:55 | 3.18310 | 104.35280 | 33845 ft | 477 kts | 190° |
| 2026-05-07 23:56 | 3.11740 | 104.33970 | 33843 ft | 477 kts | 190° |
| 2026-05-07 23:56 | 3.05226 | 104.32670 | 33841 ft | 476 kts | 190° |
| 2026-05-07 23:57 | 2.98734 | 104.31375 | 33843 ft | 476 kts | 190° |
| 2026-05-07 23:57 | 2.92219 | 104.30076 | 33843 ft | 476 kts | 190° |
| 2026-05-07 23:58 | 2.85658 | 104.28767 | 33841 ft | 476 kts | 190° |
| 2026-05-07 23:58 | 2.79177 | 104.27475 | 33843 ft | 477 kts | 190° |
| 2026-05-07 23:59 | 2.72635 | 104.26170 | 33841 ft | 476 kts | 190° |
| 2026-05-07 23:59 | 2.66122 | 104.24873 | 33842 ft | 475 kts | 190° |
| 2026-05-08 00:00 | 2.59646 | 104.23582 | 33843 ft | 474 kts | 190° |
| 2026-05-08 00:00 | 2.53154 | 104.22288 | 33842 ft | 473 kts | 190° |
| 2026-05-08 00:01 | 2.46697 | 104.21001 | 33843 ft | 474 kts | 190° |
| 2026-05-08 00:01 | 2.40177 | 104.19701 | 33842 ft | 474 kts | 190° |
| 2026-05-08 00:02 | 2.33694 | 104.18410 | 33845 ft | 474 kts | 190° |
| 2026-05-08 00:02 | 2.27224 | 104.17121 | 33853 ft | 472 kts | 190° |
| 2026-05-08 00:03 | 2.20783 | 104.15838 | 33859 ft | 471 kts | 190° |
| 2026-05-08 00:03 | 2.14345 | 104.14555 | 33859 ft | 471 kts | 190° |
| 2026-05-08 00:04 | 2.07893 | 104.13271 | 33861 ft | 470 kts | 190° |
| 2026-05-08 00:04 | 2.01460 | 104.11990 | 33862 ft | 470 kts | 190° |
| 2026-05-08 00:05 | 1.95048 | 104.10712 | 33861 ft | 470 kts | 190° |
| 2026-05-08 00:05 | 1.88610 | 104.09431 | 33865 ft | 471 kts | 190° |
| 2026-05-08 00:06 | 1.82172 | 104.08148 | 33866 ft | 470 kts | 190° |
| 2026-05-08 00:06 | 1.75742 | 104.06868 | 33867 ft | 471 kts | 190° |
| 2026-05-08 00:07 | 1.69262 | 104.05578 | 33862 ft | 471 kts | 190° |
| 2026-05-08 00:07 | 1.62831 | 104.04298 | 33853 ft | 473 kts | 190° |
| 2026-05-08 00:08 | 1.56331 | 104.03005 | 33847 ft | 474 kts | 190° |
| 2026-05-08 00:08 | 1.49909 | 104.01726 | 33840 ft | 464 kts | 190° |
| 2026-05-08 00:09 | 1.43669 | 104.00483 | 33844 ft | 452 kts | 190° |
| 2026-05-08 00:09 | 1.37461 | 103.99247 | 33855 ft | 458 kts | 190° |